createdAt,value
2017-12-21T00:01:08.694Z,98872
2017-12-21T00:03:36.004Z,98870
2017-12-21T00:06:03.477Z,98871
2017-12-21T00:08:30.127Z,98867
2017-12-21T00:10:57.647Z,98878
2017-12-21T00:13:24.327Z,98880
2017-12-21T00:15:50.978Z,98880
2017-12-21T00:18:18.410Z,98876
2017-12-21T00:20:45.122Z,98876
2017-12-21T00:23:11.767Z,98881
2017-12-21T00:25:38.452Z,98880
2017-12-21T00:28:05.095Z,98887
2017-12-21T00:30:31.775Z,98884
2017-12-21T00:32:58.458Z,98888
2017-12-21T00:35:25.281Z,98885
2017-12-21T00:37:52.649Z,98890
2017-12-21T00:40:19.308Z,98881
2017-12-21T00:42:45.945Z,98880
2017-12-21T00:45:12.625Z,98883
2017-12-21T00:47:40.089Z,98878
2017-12-21T00:50:07.465Z,98877
2017-12-21T00:52:34.097Z,98875
2017-12-21T00:55:01.507Z,98875
2017-12-21T00:57:28.171Z,98876
2017-12-21T00:59:54.799Z,98872
2017-12-21T01:02:21.487Z,98875
2017-12-21T01:04:48.885Z,98875
2017-12-21T01:07:15.572Z,98870
2017-12-21T01:09:42.976Z,98873
2017-12-21T01:12:09.670Z,98866
2017-12-21T01:14:36.301Z,98859
2017-12-21T01:17:02.950Z,98856
2017-12-21T01:19:29.593Z,98859
2017-12-21T01:21:57.007Z,98860
2017-12-21T01:24:23.667Z,98854
2017-12-21T01:26:50.317Z,98855
2017-12-21T01:29:16.974Z,98855
2017-12-21T01:31:43.630Z,98858
2017-12-21T01:34:11.042Z,98860
2017-12-21T01:36:37.698Z,98856
2017-12-21T01:39:04.396Z,98855
2017-12-21T01:41:31.106Z,98849
2017-12-21T01:43:57.790Z,98851
2017-12-21T01:46:25.351Z,98852
2017-12-21T01:48:52.002Z,98851
2017-12-21T01:51:18.678Z,98852
2017-12-21T01:53:45.359Z,98847
2017-12-21T01:56:13.702Z,98849
2017-12-21T01:58:40.383Z,98851
2017-12-21T02:01:07.870Z,98855
2017-12-21T02:03:34.524Z,98853
2017-12-21T02:06:01.293Z,98850
2017-12-21T02:08:27.989Z,98860
2017-12-21T02:10:55.508Z,98861
2017-12-21T02:13:22.183Z,98866
2017-12-21T02:15:49.620Z,98871
2017-12-21T02:18:16.272Z,98868
2017-12-21T02:20:43.026Z,98870
2017-12-21T02:23:11.546Z,98865
2017-12-21T02:25:38.258Z,98870
2017-12-21T02:28:05.792Z,98870
2017-12-21T02:30:32.571Z,98866
2017-12-21T02:33:00.050Z,98864
2017-12-21T02:35:27.055Z,98866
2017-12-21T02:37:53.828Z,98872
2017-12-21T02:40:21.851Z,98875
2017-12-21T02:42:48.550Z,98877
2017-12-21T02:45:16.046Z,98872
2017-12-21T02:47:42.749Z,98868
2017-12-21T02:50:10.532Z,98871
2017-12-21T02:52:37.281Z,98873
2017-12-21T02:55:04.016Z,98878
2017-12-21T02:57:30.768Z,98866
2017-12-21T02:59:57.576Z,98866
2017-12-21T03:02:24.294Z,98866
2017-12-21T03:04:51.770Z,98864
2017-12-21T03:07:18.522Z,98872
2017-12-21T03:09:45.277Z,98870
2017-12-21T03:12:12.747Z,98867
2017-12-21T03:14:40.267Z,98863
2017-12-21T03:17:06.980Z,98857
2017-12-21T03:19:33.657Z,98860
2017-12-21T03:22:00.372Z,98859
2017-12-21T03:24:27.120Z,98868
2017-12-21T03:26:54.476Z,98867
2017-12-21T03:29:21.174Z,98863
2017-12-21T03:31:48.911Z,98863
2017-12-21T03:34:16.484Z,98868
2017-12-21T03:36:43.194Z,98865
2017-12-21T03:39:09.834Z,98872
2017-12-21T03:41:36.524Z,98872
2017-12-21T03:44:03.274Z,98862
2017-12-21T03:46:30.031Z,98871
2017-12-21T03:48:58.410Z,98865
2017-12-21T03:51:25.170Z,98863
2017-12-21T03:53:53.036Z,98859
2017-12-21T03:56:20.706Z,98862
2017-12-21T03:58:48.314Z,98856
2017-12-21T04:01:15.094Z,98857
2017-12-21T04:03:41.887Z,98853
2017-12-21T04:06:08.851Z,98849
2017-12-21T04:08:35.648Z,98847
2017-12-21T04:11:03.192Z,98845
2017-12-21T04:13:30.375Z,98845
2017-12-21T04:15:57.948Z,98843
2017-12-21T04:18:24.610Z,98844
2017-12-21T04:20:51.391Z,98842
2017-12-21T04:23:18.066Z,98850
2017-12-21T04:25:46.254Z,98848
2017-12-21T04:28:12.955Z,98856
2017-12-21T04:30:39.672Z,98859
2017-12-21T04:33:06.342Z,98859
2017-12-21T04:35:33.031Z,98857
2017-12-21T04:37:59.801Z,98856
2017-12-21T04:40:26.507Z,98848
2017-12-21T04:42:53.955Z,98855
2017-12-21T04:45:21.393Z,98860
2017-12-21T04:47:48.066Z,98865
2017-12-21T04:50:15.467Z,98863
2017-12-21T04:52:42.135Z,98864
2017-12-21T04:55:08.856Z,98864
2017-12-21T04:57:35.500Z,98861
2017-12-21T05:00:03.079Z,98857
2017-12-21T05:02:29.777Z,98859
2017-12-21T05:04:56.438Z,98857
2017-12-21T05:07:23.125Z,98867
2017-12-21T05:09:49.834Z,98883
2017-12-21T05:12:16.535Z,98886
2017-12-21T05:14:44.009Z,98879
2017-12-21T05:17:10.666Z,98869
2017-12-21T05:19:37.349Z,98883
2017-12-21T05:22:04.014Z,98886
2017-12-21T05:24:31.397Z,98884
2017-12-21T05:26:58.075Z,98895
2017-12-21T05:29:24.841Z,98900
2017-12-21T05:31:51.480Z,98898
2017-12-21T05:34:18.112Z,98904
2017-12-21T05:36:44.770Z,98904
2017-12-21T05:39:11.426Z,98906
2017-12-21T05:41:38.087Z,98898
2017-12-21T05:44:05.472Z,98904
2017-12-21T05:46:32.386Z,98909
2017-12-21T05:48:59.897Z,98902
2017-12-21T05:51:26.614Z,98902
2017-12-21T05:53:53.281Z,98910
2017-12-21T05:56:19.976Z,98913
2017-12-21T05:58:47.407Z,98924
2017-12-21T06:01:14.126Z,98919
2017-12-21T06:03:40.809Z,98921
2017-12-21T06:06:07.474Z,98920
2017-12-21T06:08:35.145Z,98917
2017-12-21T06:11:02.633Z,98914
2017-12-21T06:13:29.262Z,98909
2017-12-21T06:15:56.000Z,98913
2017-12-21T06:18:22.909Z,98901
2017-12-21T06:20:49.584Z,98903
2017-12-21T06:23:16.302Z,98898
2017-12-21T06:25:43.916Z,98887
2017-12-21T06:28:10.542Z,98886
2017-12-21T06:30:37.185Z,98885
2017-12-21T06:33:03.829Z,98893
2017-12-21T06:35:30.916Z,98899
2017-12-21T06:37:57.566Z,98892
2017-12-21T06:40:24.296Z,98895
2017-12-21T06:42:51.728Z,98902
2017-12-21T06:45:18.397Z,98908
2017-12-21T06:47:45.076Z,98913
2017-12-21T06:50:11.869Z,98905
2017-12-21T06:52:38.522Z,98917
2017-12-21T06:55:05.220Z,98913
2017-12-21T06:57:32.615Z,98912
2017-12-21T06:59:59.275Z,98921
2017-12-21T07:02:25.947Z,98917
2017-12-21T07:04:52.575Z,98920
2017-12-21T07:07:19.302Z,98923
2017-12-21T07:09:45.977Z,98916
2017-12-21T07:12:12.642Z,98931
2017-12-21T07:14:40.053Z,98928
2017-12-21T07:17:06.777Z,98918
2017-12-21T07:19:34.380Z,98914
2017-12-21T07:22:01.029Z,98926
2017-12-21T07:24:27.747Z,98919
2017-12-21T07:26:54.389Z,98929
2017-12-21T07:29:21.030Z,98932
2017-12-21T07:31:47.708Z,98933
2017-12-21T07:34:15.090Z,98932
2017-12-21T07:36:41.753Z,98943
2017-12-21T07:39:08.450Z,98939
2017-12-21T07:41:35.080Z,98936
2017-12-21T07:44:01.738Z,98942
2017-12-21T07:46:29.142Z,98941
2017-12-21T07:48:55.782Z,98942
2017-12-21T07:51:22.433Z,98942
2017-12-21T07:53:49.118Z,98940
2017-12-21T07:56:15.748Z,98935
2017-12-21T07:58:42.406Z,98945
2017-12-21T08:01:09.061Z,98956
2017-12-21T08:03:35.742Z,98946
2017-12-21T08:06:02.393Z,98951
2017-12-21T08:08:29.349Z,98951
2017-12-21T08:10:55.991Z,98944
2017-12-21T08:13:22.624Z,98944
2017-12-21T08:15:49.639Z,98950
2017-12-21T08:18:16.340Z,98957
2017-12-21T08:20:43.002Z,98956
2017-12-21T08:23:09.638Z,98949
2017-12-21T08:25:36.263Z,98935
2017-12-21T08:28:02.954Z,98930
2017-12-21T08:30:29.628Z,98931
2017-12-21T08:32:57.173Z,98926
2017-12-21T08:35:23.902Z,98925
2017-12-21T08:37:50.552Z,98931
2017-12-21T08:40:17.205Z,98939
2017-12-21T08:42:43.884Z,98935
2017-12-21T08:45:10.536Z,98934
2017-12-21T08:47:37.209Z,98928
2017-12-21T08:50:03.914Z,98938
2017-12-21T08:52:30.570Z,98940
2017-12-21T08:54:57.213Z,98944
2017-12-21T08:57:23.885Z,98946
2017-12-21T08:59:50.536Z,98937
2017-12-21T09:02:17.214Z,98940
2017-12-21T09:04:43.888Z,98942
2017-12-21T09:07:10.534Z,98934
2017-12-21T09:09:38.183Z,98936
2017-12-21T09:12:04.874Z,98929
2017-12-21T09:14:32.469Z,98940
2017-12-21T09:16:59.156Z,98936
2017-12-21T09:19:27.578Z,98946
2017-12-21T09:21:54.245Z,98940
2017-12-21T09:24:20.894Z,98940
2017-12-21T09:26:47.551Z,98935
2017-12-21T09:29:14.222Z,98939
2017-12-21T09:31:40.883Z,98943
2017-12-21T09:34:07.611Z,98940
2017-12-21T09:36:34.267Z,98924
2017-12-21T09:39:00.943Z,98920
2017-12-21T09:41:27.646Z,98920
2017-12-21T09:43:54.311Z,98916
2017-12-21T09:46:20.946Z,98915
2017-12-21T09:48:47.632Z,98920
2017-12-21T09:51:15.073Z,98917
2017-12-21T09:53:41.711Z,98914
2017-12-21T09:56:09.117Z,98906
2017-12-21T09:58:36.540Z,98892
2017-12-21T10:01:03.197Z,98893
2017-12-21T10:03:29.860Z,98890
2017-12-21T10:05:57.345Z,98887
2017-12-21T10:08:23.991Z,98883
2017-12-21T10:10:50.696Z,98875
2017-12-21T10:13:17.329Z,98875
2017-12-21T10:15:43.980Z,98883
2017-12-21T10:18:10.679Z,98878
2017-12-21T10:20:37.306Z,98864
2017-12-21T10:23:03.959Z,98870
2017-12-21T10:25:30.675Z,98870
2017-12-21T10:27:57.321Z,98863
2017-12-21T10:30:23.945Z,98860
2017-12-21T10:32:51.367Z,98853
2017-12-21T10:35:18.041Z,98849
2017-12-21T10:37:45.465Z,98855
2017-12-21T10:40:12.114Z,98859
2017-12-21T10:42:38.765Z,98857
2017-12-21T10:45:05.434Z,98854
2017-12-21T10:47:32.841Z,98852
2017-12-21T10:49:59.488Z,98839
2017-12-21T10:52:26.168Z,98838
2017-12-21T10:54:52.819Z,98845
2017-12-21T10:57:20.210Z,98836
2017-12-21T10:59:46.859Z,98836
2017-12-21T11:02:13.777Z,98829
2017-12-21T11:04:41.161Z,98829
2017-12-21T11:07:08.584Z,98822
2017-12-21T11:09:35.997Z,98819
2017-12-21T11:12:02.783Z,98809
2017-12-21T11:14:29.409Z,98802
2017-12-21T11:16:56.129Z,98799
2017-12-21T11:19:22.811Z,98795
2017-12-21T11:21:49.485Z,98785
2017-12-21T11:24:16.199Z,98776
2017-12-21T11:26:42.889Z,98782
2017-12-21T11:29:09.545Z,98782
2017-12-21T11:31:37.211Z,98778
2017-12-21T11:34:03.875Z,98771
2017-12-21T11:36:30.530Z,98760
2017-12-21T11:38:57.214Z,98758
2017-12-21T11:41:23.884Z,98753
2017-12-21T11:43:50.546Z,98749
2017-12-21T11:46:17.311Z,98751
2017-12-21T11:48:44.731Z,98750
2017-12-21T11:51:11.418Z,98753
2017-12-21T11:53:38.825Z,98738
2017-12-21T11:56:05.454Z,98724
2017-12-21T11:58:32.123Z,98731
2017-12-21T12:00:58.839Z,98719
2017-12-21T12:03:25.501Z,98717
2017-12-21T12:05:52.216Z,98716
2017-12-21T12:08:18.913Z,98709
2017-12-21T12:10:45.693Z,98706
2017-12-21T12:13:13.141Z,98691
2017-12-21T12:15:40.667Z,98692
2017-12-21T12:18:07.423Z,98695
2017-12-21T12:20:34.859Z,98686
2017-12-21T12:23:01.520Z,98690
2017-12-21T12:25:28.163Z,98681
2017-12-21T12:27:54.836Z,98678
2017-12-21T12:30:22.221Z,98676
2017-12-21T12:32:48.936Z,98671
2017-12-21T12:35:15.589Z,98665
2017-12-21T12:37:43.061Z,98666
2017-12-21T12:40:09.730Z,98662
2017-12-21T12:42:36.373Z,98668
2017-12-21T12:45:03.177Z,98666
2017-12-21T12:47:30.680Z,98660
2017-12-21T12:49:57.315Z,98659
2017-12-21T12:52:24.728Z,98654
2017-12-21T12:54:51.420Z,98651
2017-12-21T12:57:18.063Z,98655
2017-12-21T12:59:44.718Z,98652
2017-12-21T13:02:11.474Z,98644
2017-12-21T13:04:38.981Z,98639
2017-12-21T13:07:05.632Z,98636
2017-12-21T13:09:33.159Z,98626
2017-12-21T13:11:59.817Z,98623
2017-12-21T13:14:27.224Z,98623
2017-12-21T13:16:54.001Z,98624
2017-12-21T13:19:20.641Z,98616
2017-12-21T13:21:47.334Z,98617
2017-12-21T13:24:13.983Z,98617
2017-12-21T13:26:40.686Z,98620
2017-12-21T13:29:08.174Z,98619
2017-12-21T13:31:34.935Z,98618
2017-12-21T13:34:01.589Z,98619
2017-12-21T13:36:28.268Z,98621
2017-12-21T13:38:54.920Z,98625
2017-12-21T13:41:22.712Z,98627
2017-12-21T13:43:50.369Z,98621
2017-12-21T13:46:17.803Z,98620
2017-12-21T13:48:44.488Z,98623
2017-12-21T13:51:11.151Z,98631
2017-12-21T13:53:37.823Z,98630
2017-12-21T13:56:04.494Z,98631
2017-12-21T13:58:31.199Z,98629
2017-12-21T14:00:57.985Z,98626
2017-12-21T14:03:26.245Z,98616
2017-12-21T14:05:53.027Z,98628
2017-12-21T14:08:19.718Z,98634
2017-12-21T14:10:47.150Z,98631
2017-12-21T14:13:13.849Z,98624
2017-12-21T14:15:41.331Z,98630
2017-12-21T14:18:07.986Z,98619
2017-12-21T14:20:34.648Z,98620
2017-12-21T14:23:02.345Z,98613
2017-12-21T14:25:29.338Z,98613
2017-12-21T14:27:56.004Z,98617
2017-12-21T14:30:22.702Z,98616
2017-12-21T14:32:50.119Z,98614
2017-12-21T14:35:17.029Z,98602
2017-12-21T14:37:43.709Z,98603
2017-12-21T14:40:10.379Z,98609
2017-12-21T14:42:37.028Z,98608
2017-12-21T14:45:04.048Z,98608
2017-12-21T14:47:30.767Z,98605
2017-12-21T14:49:58.187Z,98610
2017-12-21T14:52:26.481Z,98604
2017-12-21T14:54:55.406Z,98611
2017-12-21T14:57:22.043Z,98606
2017-12-21T14:59:48.699Z,98606
2017-12-21T15:02:15.347Z,98603
2017-12-21T15:04:41.984Z,98603
2017-12-21T15:07:08.654Z,98602
2017-12-21T15:09:36.229Z,98604
2017-12-21T15:12:02.933Z,98594
2017-12-21T15:14:30.557Z,98599
2017-12-21T15:16:58.910Z,98595
2017-12-21T15:19:25.619Z,98594
2017-12-21T15:21:52.302Z,98593
2017-12-21T15:24:18.950Z,98586
2017-12-21T15:26:45.627Z,98601
2017-12-21T15:29:13.000Z,98592
2017-12-21T15:31:39.659Z,98595
2017-12-21T15:34:06.325Z,98595
2017-12-21T15:36:32.978Z,98597
2017-12-21T15:38:59.661Z,98591
2017-12-21T15:41:26.331Z,98592
2017-12-21T15:43:52.996Z,98586
2017-12-21T15:46:19.642Z,98588
2017-12-21T15:48:47.212Z,98576
2017-12-21T15:51:13.900Z,98585
2017-12-21T15:53:40.610Z,98586
2017-12-21T15:56:08.003Z,98588
2017-12-21T15:58:34.653Z,98582
2017-12-21T16:01:01.282Z,98586
2017-12-21T16:03:27.960Z,98593
2017-12-21T16:05:54.761Z,98595
2017-12-21T16:08:22.241Z,98594
2017-12-21T16:10:48.972Z,98594
2017-12-21T16:13:15.657Z,98592
2017-12-21T16:15:42.982Z,98586
2017-12-21T16:18:09.687Z,98589
2017-12-21T16:20:36.660Z,98597
2017-12-21T16:23:03.335Z,98587
2017-12-21T16:25:30.027Z,98588
2017-12-21T16:27:57.450Z,98587
2017-12-21T16:30:24.094Z,98592
2017-12-21T16:32:50.792Z,98597
2017-12-21T16:35:17.442Z,98595
2017-12-21T16:37:44.110Z,98599
2017-12-21T16:40:10.861Z,98605
2017-12-21T16:42:38.515Z,98602
2017-12-21T16:45:05.189Z,98599
2017-12-21T16:47:31.903Z,98598
2017-12-21T16:49:58.574Z,98591
2017-12-21T16:52:25.314Z,98592
2017-12-21T16:54:52.039Z,98595
2017-12-21T16:57:19.904Z,98593
2017-12-21T16:59:47.394Z,98594
2017-12-21T17:02:14.944Z,98593
2017-12-21T17:04:41.655Z,98595
2017-12-21T17:07:09.306Z,98602
2017-12-21T17:09:36.770Z,98597
2017-12-21T17:12:03.460Z,98607
2017-12-21T17:14:30.343Z,98599
2017-12-21T17:16:57.806Z,98602
2017-12-21T17:19:25.283Z,98603
2017-12-21T17:21:51.971Z,98605
2017-12-21T17:24:18.697Z,98605
2017-12-21T17:26:45.465Z,98599
2017-12-21T17:29:12.140Z,98599
2017-12-21T17:31:39.569Z,98590
2017-12-21T17:34:07.036Z,98591
2017-12-21T17:36:33.777Z,98589
2017-12-21T17:39:00.571Z,98594
2017-12-21T17:41:27.242Z,98592
2017-12-21T17:43:53.999Z,98590
2017-12-21T17:46:20.680Z,98588
2017-12-21T17:48:48.078Z,98584
2017-12-21T17:51:14.770Z,98587
2017-12-21T17:53:41.461Z,98586
2017-12-21T17:56:08.879Z,98592
2017-12-21T17:58:35.549Z,98585
2017-12-21T18:01:03.303Z,98591
2017-12-21T18:03:30.727Z,98596
2017-12-21T18:05:57.398Z,98587
2017-12-21T18:08:25.426Z,98585
2017-12-21T18:10:52.432Z,98588
2017-12-21T18:13:19.859Z,98590
2017-12-21T18:15:46.523Z,98587
2017-12-21T18:18:13.446Z,98591
2017-12-21T18:20:40.141Z,98594
2017-12-21T18:23:06.820Z,98595
2017-12-21T18:25:33.542Z,98597
2017-12-21T18:28:00.218Z,98594
2017-12-21T18:30:28.808Z,98597
2017-12-21T18:32:56.343Z,98596
2017-12-21T18:35:23.158Z,98594
2017-12-21T18:37:50.718Z,98597
2017-12-21T18:40:18.136Z,98593
2017-12-21T18:42:44.935Z,98602
2017-12-21T18:45:12.138Z,98597
2017-12-21T18:47:38.831Z,98604
2017-12-21T18:50:05.567Z,98601
2017-12-21T18:52:32.937Z,98599
2017-12-21T18:54:59.630Z,98595
2017-12-21T18:57:26.347Z,98605
2017-12-21T18:59:53.096Z,98604
2017-12-21T19:02:19.913Z,98606
2017-12-21T19:04:47.930Z,98600
2017-12-21T19:07:14.695Z,98601
2017-12-21T19:09:41.376Z,98606
2017-12-21T19:12:09.005Z,98595
2017-12-21T19:14:35.762Z,98601
2017-12-21T19:17:03.223Z,98608
2017-12-21T19:19:30.739Z,98618
2017-12-21T19:21:57.465Z,98617
2017-12-21T19:24:24.150Z,98621
2017-12-21T19:26:50.874Z,98622
2017-12-21T19:29:17.587Z,98621
2017-12-21T19:31:44.254Z,98617
2017-12-21T19:34:11.821Z,98621
2017-12-21T19:36:38.509Z,98625
2017-12-21T19:39:05.958Z,98620
2017-12-21T19:41:32.943Z,98632
2017-12-21T19:43:59.621Z,98623
2017-12-21T19:46:28.563Z,98623
2017-12-21T19:48:55.270Z,98623
2017-12-21T19:51:21.997Z,98629
2017-12-21T19:53:48.657Z,98636
2017-12-21T19:56:15.402Z,98625
2017-12-21T19:58:42.083Z,98624
2017-12-21T20:01:09.547Z,98627
2017-12-21T20:03:36.982Z,98633
2017-12-21T20:06:04.492Z,98628
2017-12-21T20:08:31.130Z,98618
2017-12-21T20:10:57.818Z,98630
2017-12-21T20:13:25.642Z,98624
2017-12-21T20:15:53.135Z,98635
2017-12-21T20:18:20.012Z,98638
2017-12-21T20:20:47.522Z,98636
2017-12-21T20:23:14.202Z,98642
2017-12-21T20:25:41.384Z,98643
2017-12-21T20:28:08.929Z,98642
2017-12-21T20:30:35.641Z,98653
2017-12-21T20:33:02.358Z,98650
2017-12-21T20:35:30.195Z,98646
2017-12-21T20:37:58.509Z,98653
2017-12-21T20:40:25.610Z,98656
2017-12-21T20:42:52.261Z,98649
2017-12-21T20:45:18.919Z,98644
2017-12-21T20:47:45.632Z,98657
2017-12-21T20:50:12.487Z,98654
2017-12-21T20:52:39.213Z,98656
2017-12-21T20:55:05.899Z,98654
2017-12-21T20:57:32.591Z,98648
2017-12-21T20:59:59.247Z,98656
2017-12-21T21:02:26.034Z,98662
2017-12-21T21:04:53.788Z,98664
2017-12-21T21:07:20.459Z,98668
2017-12-21T21:09:47.128Z,98680
2017-12-21T21:12:14.862Z,98680
2017-12-21T21:14:42.369Z,98685
2017-12-21T21:17:09.614Z,98680
2017-12-21T21:19:36.433Z,98680
2017-12-21T21:22:03.873Z,98665
2017-12-21T21:24:30.615Z,98686
2017-12-21T21:26:57.289Z,98687
2017-12-21T21:29:24.405Z,98690
2017-12-21T21:31:51.095Z,98687
2017-12-21T21:34:17.778Z,98690
2017-12-21T21:36:44.492Z,98700
2017-12-21T21:39:11.194Z,98703
2017-12-21T21:41:38.608Z,98711
2017-12-21T21:44:07.361Z,98710
2017-12-21T21:46:34.031Z,98710
2017-12-21T21:49:00.702Z,98707
2017-12-21T21:51:27.748Z,98699
2017-12-21T21:53:54.446Z,98704
2017-12-21T21:56:21.141Z,98701
2017-12-21T21:58:48.650Z,98690
2017-12-21T22:01:15.549Z,98688
2017-12-21T22:03:42.267Z,98685
2017-12-21T22:06:08.989Z,98686
2017-12-21T22:08:35.677Z,98700
2017-12-21T22:11:02.421Z,98706
2017-12-21T22:13:29.169Z,98719
2017-12-21T22:15:55.894Z,98707
2017-12-21T22:18:22.581Z,98705
2017-12-21T22:20:50.175Z,98707
2017-12-21T22:23:17.677Z,98706
2017-12-21T22:25:44.972Z,98703
2017-12-21T22:28:12.478Z,98698
2017-12-21T22:30:39.158Z,98686
2017-12-21T22:33:06.724Z,98683
2017-12-21T22:35:33.382Z,98690
2017-12-21T22:38:00.785Z,98696
2017-12-21T22:40:27.499Z,98690
2017-12-21T22:42:55.933Z,98700
2017-12-21T22:45:22.613Z,98716
2017-12-21T22:47:50.039Z,98720
2017-12-21T22:50:17.749Z,98729
2017-12-21T22:52:44.438Z,98731
2017-12-21T22:55:11.107Z,98722
2017-12-21T22:57:37.788Z,98722
2017-12-21T23:00:04.602Z,98728
2017-12-21T23:02:31.257Z,98723
2017-12-21T23:04:58.672Z,98714
2017-12-21T23:07:25.350Z,98708
2017-12-21T23:09:52.913Z,98710
2017-12-21T23:12:20.347Z,98708
2017-12-21T23:14:47.169Z,98716
2017-12-21T23:17:13.823Z,98724
2017-12-21T23:19:40.651Z,98714
2017-12-21T23:22:07.357Z,98713
2017-12-21T23:24:34.794Z,98706
2017-12-21T23:27:01.511Z,98699
2017-12-21T23:29:28.161Z,98699
2017-12-21T23:31:54.841Z,98697
2017-12-21T23:34:22.340Z,98685
2017-12-21T23:36:49.203Z,98671
2017-12-21T23:39:15.892Z,98672
2017-12-21T23:41:42.550Z,98674
2017-12-21T23:44:09.969Z,98667
2017-12-21T23:46:36.689Z,98664
2017-12-21T23:49:04.176Z,98664
2017-12-21T23:51:30.914Z,98666
2017-12-21T23:53:57.594Z,98663
2017-12-21T23:56:25.133Z,98670
2017-12-21T23:58:51.751Z,98664
